Stations météo

réclame
Mon MeteoGroup
Langdon Bay, Grande-Bretagne (3796): Température de l'air & dewpoint: 24.09.2020 18:00:00 - 30.09.2020 18:00:00 (BST)Langdon Bay, Grande-Bretagne (3796): Vitesse du vent & gusts: 24.09.2020 18:00:00 - 30.09.2020 18:00:00 (BST)Langdon Bay, Grande-Bretagne (3796): Direction du vent: 24.09.2020 18:00:00 - 30.09.2020 18:00:00 (BST)Langdon Bay, Grande-Bretagne (3796): reduced air pressure: 24.09.2020 18:00:00 - 30.09.2020 18:00:00 (BST)
Date & Time tt [°C] td [°C] ff [km/h] ff [knt] fx [km/h] fx [knt] dd ppp [hPa]
30.09.2020 18:00:00 16,1 14,2 29 16 48 26 S 1005,8
30.09.2020 17:00:00 16,1 14,0 26 14 52 28 S 1006,8
30.09.2020 16:00:00 16,5 13,6 39 21 55 30 S 1007,4
30.09.2020 15:00:00 16,8 14,0 34 18 52 28 S 1008,1
30.09.2020 14:00:00 17,0 14,5 31 17 50 27 S 1008,8
30.09.2020 13:00:00 15,3 14,1 34 18 50 27 S 1009,5
30.09.2020 12:00:00 16,1 13,4 29 16 46 25 SSW 1010,1
30.09.2020 11:00:00 15,6 12,8 22 12 - - SSW 1010,7
30.09.2020 10:00:00 15,2 13,4 26 14 - - S 1011,4
30.09.2020 09:00:00 15,0 13,3 24 13 - - S 1011,8
30.09.2020 08:00:00 14,2 12,4 11 6 - - SSW 1012,2
30.09.2020 07:00:00 13,3 11,3 9 5 - - SW 1012,4
30.09.2020 06:00:00 13,5 11,2 15 8 - - WSW 1012,8
30.09.2020 05:00:00 12,8 9,9 15 8 - - SW 1012,9
30.09.2020 04:00:00 12,7 9,8 13 7 - - SW 1013,4
30.09.2020 03:00:00 13,5 9,9 16 9 - - SW 1014,2
30.09.2020 02:00:00 13,5 10,4 21 11 - - SW 1014,6
30.09.2020 01:00:00 13,2 12,3 9 5 - - SW 1014,7
30.09.2020 00:00:00 13,0 12,4 13 7 - - SW 1015,5
29.09.2020 23:00:00 13,0 12,3 15 8 - - WSW 1015,8
29.09.2020 22:00:00 12,7 11,7 11 6 - - SW 1016,2
29.09.2020 21:00:00 12,6 11,7 5 3 - - SSW 1016,2
29.09.2020 20:00:00 13,1 11,3 5 3 - - N 1016,1
29.09.2020 19:00:00 14,8 11,8 8 4 - - NNW 1015,9
29.09.2020 18:00:00 16,3 12,9 4 2 - - E 1015,5
29.09.2020 17:00:00 18,3 13,6 8 4 - - W 1015,0
29.09.2020 16:00:00 18,1 14,3 21 11 - - SW 1014,8
29.09.2020 15:00:00 17,6 15,0 16 9 - - SW 1014,8
29.09.2020 14:00:00 17,9 15,3 16 9 - - SW 1015,0
29.09.2020 13:00:00 17,4 16,6 15 8 - - SW 1015,2
29.09.2020 12:00:00 15,7 15,6 11 6 - - SW 1015,4
29.09.2020 11:00:00 15,7 15,7 8 4 - - SW 1015,5
29.09.2020 10:00:00 15,2 15,2 5 3 - - SSE 1015,3
29.09.2020 09:00:00 14,6 14,5 5 3 - - S 1015,2
29.09.2020 08:00:00 14,2 14,0 5 3 - - S 1015,0
29.09.2020 07:00:00 14,0 13,6 4 2 - - S 1014,8
29.09.2020 06:00:00 14,0 13,5 4 2 - - S 1014,7
29.09.2020 05:00:00 13,7 13,3 4 2 - - SW 1014,7
29.09.2020 04:00:00 13,3 12,9 16 9 - - WNW 1014,5
29.09.2020 03:00:00 12,9 12,2 13 7 - - WNW 1014,6
29.09.2020 02:00:00 12,3 11,5 9 5 - - W 1014,5
29.09.2020 01:00:00 12,7 11,2 16 9 - - WNW 1014,2
29.09.2020 00:00:00 12,6 10,4 15 8 - - W 1014,3
28.09.2020 23:00:00 12,3 9,1 11 6 - - W 1014,5
28.09.2020 22:00:00 12,5 6,4 13 7 - - W 1014,3
28.09.2020 21:00:00 12,4 5,5 13 7 - - WNW 1014,0
28.09.2020 20:00:00 12,1 5,9 13 7 - - W 1013,7
28.09.2020 19:00:00 11,7 5,7 11 6 - - W 1013,3
28.09.2020 18:00:00 13,5 5,5 9 5 - - W 1012,8
28.09.2020 17:00:00 15,1 4,4 13 7 - - WNW 1012,4
28.09.2020 16:00:00 16,7 9,4 13 7 - - WNW 1012,0
28.09.2020 15:00:00 14,1 10,4 15 8 - - NW 1012,2
28.09.2020 14:00:00 13,1 10,0 22 12 - - WNW 1012,5
28.09.2020 13:00:00 12,5 10,0 21 11 - - WNW 1012,5
28.09.2020 12:00:00 12,4 10,4 24 13 46 25 NW 1012,1
28.09.2020 11:00:00 11,1 10,4 31 17 46 25 NW 1011,7
28.09.2020 10:00:00 10,6 9,8 39 21 48 26 NW 1011,4
28.09.2020 09:00:00 10,5 9,6 34 18 50 27 NW 1011,2
28.09.2020 08:00:00 10,1 9,4 39 21 55 30 NW 1010,5
28.09.2020 07:00:00 10,0 9,3 42 23 61 33 NW 1009,9
28.09.2020 06:00:00 10,2 9,6 50 27 61 33 NW 1009,4
28.09.2020 05:00:00 10,0 9,7 41 22 54 29 NW 1009,9
28.09.2020 04:00:00 10,0 9,7 44 24 57 31 NW 1009,9
28.09.2020 03:00:00 10,1 9,8 37 20 54 29 NW 1010,5
28.09.2020 02:00:00 10,3 9,8 39 21 57 31 NW 1010,6
28.09.2020 01:00:00 10,5 10,0 39 21 54 29 NW 1010,4
28.09.2020 00:00:00 10,8 10,2 35 19 52 28 NW 1010,9
27.09.2020 23:00:00 10,7 10,3 35 19 57 31 NNW 1010,4
27.09.2020 22:00:00 10,9 10,4 35 19 57 31 NNW 1010,4
27.09.2020 21:00:00 11,0 10,4 35 19 59 32 NW 1010,6
27.09.2020 20:00:00 11,3 10,5 35 19 50 27 NW 1010,5
27.09.2020 19:00:00 11,6 10,7 34 18 54 29 NNW 1010,0
27.09.2020 18:00:00 11,6 10,8 35 19 57 31 NNW 1009,6
27.09.2020 17:00:00 12,0 10,9 37 20 55 30 NNW 1008,9
27.09.2020 16:00:00 12,5 11,3 35 19 57 31 NNW 1008,5
27.09.2020 15:00:00 12,1 11,3 39 21 67 36 NNW 1008,4
27.09.2020 14:00:00 12,0 11,6 41 22 63 34 NNW 1008,1
27.09.2020 13:00:00 11,4 11,1 39 21 67 36 NNW 1008,1
27.09.2020 12:00:00 10,9 10,7 37 20 57 31 NNW 1007,6
27.09.2020 11:00:00 10,6 10,4 39 21 57 31 NW 1007,3
27.09.2020 10:00:00 10,4 10,2 39 21 61 33 NW 1006,8
27.09.2020 09:00:00 9,8 9,5 41 22 61 33 NW 1006,2
27.09.2020 08:00:00 9,6 9,2 41 22 61 33 NW 1005,9
27.09.2020 07:00:00 9,6 8,9 42 23 68 37 NW 1005,5
27.09.2020 06:00:00 9,4 8,6 42 23 72 39 NW 1005,8
27.09.2020 05:00:00 9,3 8,4 46 25 70 38 NW 1005,9
27.09.2020 04:00:00 9,3 8,3 44 24 70 38 NW 1006,1
27.09.2020 03:00:00 9,4 8,5 48 26 78 42 NW 1006,5
27.09.2020 02:00:00 9,3 8,4 41 22 65 35 NW 1007,1
27.09.2020 01:00:00 9,5 8,4 42 23 63 34 NW 1007,2
27.09.2020 00:00:00 9,8 8,7 39 21 63 34 NW 1007,9
26.09.2020 23:00:00 10,1 8,5 42 23 63 34 NW 1008,0
26.09.2020 22:00:00 10,5 8,5 39 21 63 34 NW 1008,1
26.09.2020 21:00:00 10,7 8,9 41 22 61 33 NW 1007,8
26.09.2020 20:00:00 10,6 9,0 39 21 63 34 NW 1007,4
26.09.2020 19:00:00 10,2 8,9 39 21 67 36 NW 1007,2
26.09.2020 18:00:00 10,3 9,1 41 22 61 33 NW 1007,0
26.09.2020 17:00:00 9,9 8,7 37 20 63 34 NW 1006,8
26.09.2020 16:00:00 9,1 7,8 35 19 63 34 NW 1007,3
26.09.2020 15:00:00 9,4 7,3 39 21 59 32 NW 1007,2
26.09.2020 14:00:00 10,3 6,9 42 23 70 38 NW 1006,7
26.09.2020 13:00:00 10,4 5,6 35 19 61 33 NW 1006,7
26.09.2020 12:00:00 9,9 4,6 34 18 65 35 WNW 1006,9
26.09.2020 11:00:00 9,0 4,7 41 22 65 35 NW 1007,0
26.09.2020 10:00:00 9,5 5,2 37 20 65 35 NW 1007,0
26.09.2020 09:00:00 8,1 3,8 34 18 59 32 NW 1007,1
26.09.2020 08:00:00 7,7 3,4 34 18 59 32 NW 1006,7
26.09.2020 07:00:00 7,3 3,2 41 22 68 37 NW 1005,8
26.09.2020 06:00:00 7,5 3,4 37 20 61 33 NW 1005,8
26.09.2020 05:00:00 7,8 3,4 37 20 57 31 NW 1005,8
26.09.2020 04:00:00 8,2 3,4 35 19 59 32 NW 1006,0
26.09.2020 03:00:00 8,7 3,7 39 21 59 32 WNW 1005,7
26.09.2020 02:00:00 9,3 4,2 42 23 74 40 WNW 1005,7
26.09.2020 01:00:00 9,6 4,7 39 21 67 36 WNW 1005,4
26.09.2020 00:00:00 9,8 4,9 41 22 74 40 WNW 1005,1
25.09.2020 23:00:00 9,8 5,0 42 23 65 35 WNW 1005,1
25.09.2020 22:00:00 10,3 4,3 39 21 67 36 WNW 1004,7
25.09.2020 21:00:00 10,8 2,2 34 18 63 34 WNW 1004,6
25.09.2020 20:00:00 11,3 2,9 31 17 61 33 WNW 1003,8
25.09.2020 19:00:00 11,7 3,5 35 19 68 37 WNW 1003,1
25.09.2020 18:00:00 12,1 4,2 39 21 76 41 WNW 1002,3
25.09.2020 17:00:00 12,6 5,6 34 18 70 38 WNW 1001,7
25.09.2020 16:00:00 11,6 5,6 35 19 70 38 WNW 1001,5
25.09.2020 15:00:00 11,2 5,6 37 20 63 34 WNW 1000,6
25.09.2020 14:00:00 10,9 6,2 28 15 61 33 W 1000,2
25.09.2020 13:00:00 10,4 6,8 29 16 59 32 WNW 999,6
25.09.2020 12:00:00 9,8 7,3 28 15 59 32 WNW 999,1
25.09.2020 11:00:00 9,4 7,8 34 18 57 31 WNW 998,0
25.09.2020 10:00:00 8,8 8,0 31 17 54 29 WNW 997,3
25.09.2020 09:00:00 8,3 7,3 22 12 - - WNW 996,5
25.09.2020 08:00:00 8,1 7,0 26 14 - - WNW 995,8
25.09.2020 07:00:00 8,0 7,1 24 13 - - WNW 995,1
25.09.2020 06:00:00 8,3 7,6 24 13 - - NW 994,5
25.09.2020 05:00:00 8,6 7,4 15 8 - - WNW 994,1
25.09.2020 04:00:00 8,8 6,3 16 9 - - WNW 993,7
25.09.2020 03:00:00 8,5 6,3 11 6 - - W 993,9
25.09.2020 02:00:00 8,9 6,5 15 8 - - WSW 993,8
25.09.2020 01:00:00 8,2 6,5 15 8 - - WSW 994,3
25.09.2020 00:00:00 9,4 7,0 13 7 - - WSW 994,3
24.09.2020 23:00:00 9,4 7,7 13 7 - - SSW 994,3
24.09.2020 22:00:00 8,3 7,8 9 5 - - SW 994,7
24.09.2020 21:00:00 7,8 7,1 16 9 46 25 WNW 994,5
24.09.2020 20:00:00 10,1 7,2 31 17 61 33 S 993,7
24.09.2020 19:00:00 11,0 9,4 22 12 - - SSE 993,8
24.09.2020 18:00:00 9,9 8,3 21 11 - - SW 995,5

tt = Température de l'air
td = dewpoint
ff = Vitesse du vent
fx = gusts
dd = Direction du vent
ppp = reduced air pressure

stations d'obs. à proximité